sensor_id;sensor_type;location;lat;lon;timestamp;P1;durP1;ratioP1;P2;durP2;ratioP2
68224;SDS011;57497;43.322;21.932;2022-11-15T00:00:34;13.1;;;8.3;;
68224;SDS011;57497;43.322;21.932;2022-11-15T00:05:36;14.5;;;8.6;;
68224;SDS011;57497;43.322;21.932;2022-11-15T00:10:34;12.2;;;7.8;;
68224;SDS011;57497;43.322;21.932;2022-11-15T00:15:34;11.1;;;8;;
68224;SDS011;57497;43.322;21.932;2022-11-15T00:20:33;14.3;;;8.7;;
68224;SDS011;57497;43.322;21.932;2022-11-15T00:25:33;12.8;;;9.9;;
68224;SDS011;57497;43.322;21.932;2022-11-15T00:30:33;10.4;;;7.5;;
68224;SDS011;57497;43.322;21.932;2022-11-15T00:35:34;9.8;;;7;;
68224;SDS011;57497;43.322;21.932;2022-11-15T00:40:33;9.8;;;7;;
68224;SDS011;57497;43.322;21.932;2022-11-15T00:45:33;10.5;;;7.3;;
68224;SDS011;57497;43.322;21.932;2022-11-15T00:50:33;13.8;;;6.5;;
68224;SDS011;57497;43.322;21.932;2022-11-15T00:55:33;8.8;;;5.8;;
68224;SDS011;57497;43.322;21.932;2022-11-15T01:00:33;13.9;;;7.8;;
68224;SDS011;57497;43.322;21.932;2022-11-15T01:05:33;12.2;;;7.4;;
68224;SDS011;57497;43.322;21.932;2022-11-15T01:10:33;11.1;;;7.8;;
68224;SDS011;57497;43.322;21.932;2022-11-15T01:15:33;20.2;;;7;;
68224;SDS011;57497;43.322;21.932;2022-11-15T01:20:33;9.9;;;7.5;;
68224;SDS011;57497;43.322;21.932;2022-11-15T01:25:33;13.8;;;9.6;;
68224;SDS011;57497;43.322;21.932;2022-11-15T01:30:33;12.3;;;9.9;;
68224;SDS011;57497;43.322;21.932;2022-11-15T01:35:33;11.1;;;6.5;;
68224;SDS011;57497;43.322;21.932;2022-11-15T01:40:33;11.5;;;8.4;;
68224;SDS011;57497;43.322;21.932;2022-11-15T01:45:32;14.9;;;10.2;;
68224;SDS011;57497;43.322;21.932;2022-11-15T01:50:33;15.8;;;10.7;;
68224;SDS011;57497;43.322;21.932;2022-11-15T01:55:33;15.5;;;8.1;;
68224;SDS011;57497;43.322;21.932;2022-11-15T02:00:33;14.6;;;9;;
68224;SDS011;57497;43.322;21.932;2022-11-15T02:05:33;18.7;;;11;;
68224;SDS011;57497;43.322;21.932;2022-11-15T02:10:32;8.4;;;5.2;;
68224;SDS011;57497;43.322;21.932;2022-11-15T02:15:33;19.7;;;8.9;;
68224;SDS011;57497;43.322;21.932;2022-11-15T02:20:37;14.4;;;9.9;;
68224;SDS011;57497;43.322;21.932;2022-11-15T02:25:37;25.3;;;10.7;;
68224;SDS011;57497;43.322;21.932;2022-11-15T02:30:35;13;;;9;;
68224;SDS011;57497;43.322;21.932;2022-11-15T02:35:34;16.7;;;9.1;;
68224;SDS011;57497;43.322;21.932;2022-11-15T02:40:34;13.3;;;8.9;;
68224;SDS011;57497;43.322;21.932;2022-11-15T02:45:35;13.3;;;9.3;;
68224;SDS011;57497;43.322;21.932;2022-11-15T02:50:33;15.3;;;9.2;;
68224;SDS011;57497;43.322;21.932;2022-11-15T02:55:33;11.5;;;7.5;;
68224;SDS011;57497;43.322;21.932;2022-11-15T03:00:34;11.9;;;8.9;;
68224;SDS011;57497;43.322;21.932;2022-11-15T03:05:34;13.3;;;8.6;;
68224;SDS011;57497;43.322;21.932;2022-11-15T03:10:36;11.7;;;7;;
68224;SDS011;57497;43.322;21.932;2022-11-15T03:15:34;16.5;;;10.4;;
68224;SDS011;57497;43.322;21.932;2022-11-15T03:20:33;17.1;;;10.9;;
68224;SDS011;57497;43.322;21.932;2022-11-15T03:25:33;13.3;;;5.7;;
68224;SDS011;57497;43.322;21.932;2022-11-15T03:30:34;17.3;;;10.3;;
68224;SDS011;57497;43.322;21.932;2022-11-15T03:35:33;11.3;;;6.9;;
68224;SDS011;57497;43.322;21.932;2022-11-15T03:40:34;12.9;;;9.1;;
68224;SDS011;57497;43.322;21.932;2022-11-15T03:45:35;30.4;;;12;;
68224;SDS011;57497;43.322;21.932;2022-11-15T03:50:33;19.2;;;11.2;;
68224;SDS011;57497;43.322;21.932;2022-11-15T03:55:33;15.3;;;10.8;;
68224;SDS011;57497;43.322;21.932;2022-11-15T04:00:34;23.6;;;13.3;;
68224;SDS011;57497;43.322;21.932;2022-11-15T04:05:33;18.6;;;9.6;;
68224;SDS011;57497;43.322;21.932;2022-11-15T04:10:33;17.9;;;12.1;;
68224;SDS011;57497;43.322;21.932;2022-11-15T04:15:33;23.1;;;11.7;;
68224;SDS011;57497;43.322;21.932;2022-11-15T04:20:33;19.4;;;11.1;;
68224;SDS011;57497;43.322;21.932;2022-11-15T04:25:32;16.4;;;11.8;;
68224;SDS011;57497;43.322;21.932;2022-11-15T04:30:32;19.5;;;12.8;;
68224;SDS011;57497;43.322;21.932;2022-11-15T04:35:32;16;;;11.7;;
68224;SDS011;57497;43.322;21.932;2022-11-15T04:40:33;20.4;;;12.2;;
68224;SDS011;57497;43.322;21.932;2022-11-15T04:45:33;18.7;;;11.4;;
68224;SDS011;57497;43.322;21.932;2022-11-15T04:50:33;20.5;;;12.7;;
68224;SDS011;57497;43.322;21.932;2022-11-15T04:55:33;32.3;;;16.9;;
68224;SDS011;57497;43.322;21.932;2022-11-15T05:00:33;21.7;;;13.5;;
68224;SDS011;57497;43.322;21.932;2022-11-15T05:05:33;22.5;;;14.5;;
68224;SDS011;57497;43.322;21.932;2022-11-15T05:10:33;18.7;;;12.2;;
68224;SDS011;57497;43.322;21.932;2022-11-15T05:15:33;26.4;;;14.4;;
68224;SDS011;57497;43.322;21.932;2022-11-15T05:20:32;18.4;;;11.3;;
68224;SDS011;57497;43.322;21.932;2022-11-15T05:25:32;23.3;;;13;;
68224;SDS011;57497;43.322;21.932;2022-11-15T05:30:32;18.1;;;13.3;;
68224;SDS011;57497;43.322;21.932;2022-11-15T05:35:34;26.1;;;13.5;;
68224;SDS011;57497;43.322;21.932;2022-11-15T05:40:32;22.7;;;12.4;;
68224;SDS011;57497;43.322;21.932;2022-11-15T05:45:32;23.5;;;13.3;;
68224;SDS011;57497;43.322;21.932;2022-11-15T05:50:32;18.9;;;11.3;;
68224;SDS011;57497;43.322;21.932;2022-11-15T05:55:32;17.8;;;11.8;;
68224;SDS011;57497;43.322;21.932;2022-11-15T06:00:33;22.5;;;14.7;;
68224;SDS011;57497;43.322;21.932;2022-11-15T06:05:33;20.1;;;12;;
68224;SDS011;57497;43.322;21.932;2022-11-15T06:10:33;27.1;;;15.2;;
68224;SDS011;57497;43.322;21.932;2022-11-15T06:15:33;17.1;;;11.6;;
68224;SDS011;57497;43.322;21.932;2022-11-15T06:20:33;18.5;;;13.2;;
68224;SDS011;57497;43.322;21.932;2022-11-15T06:25:32;22.4;;;15.3;;
68224;SDS011;57497;43.322;21.932;2022-11-15T06:30:32;23.8;;;15.3;;
68224;SDS011;57497;43.322;21.932;2022-11-15T06:35:33;28.5;;;15.2;;
68224;SDS011;57497;43.322;21.932;2022-11-15T06:40:34;31.5;;;18.4;;
68224;SDS011;57497;43.322;21.932;2022-11-15T06:45:33;42;;;24.5;;
68224;SDS011;57497;43.322;21.932;2022-11-15T06:50:32;43.7;;;25.5;;
68224;SDS011;57497;43.322;21.932;2022-11-15T06:55:33;29.4;;;18.8;;
68224;SDS011;57497;43.322;21.932;2022-11-15T07:00:33;37.2;;;23.2;;
68224;SDS011;57497;43.322;21.932;2022-11-15T07:05:33;31.5;;;20.1;;
68224;SDS011;57497;43.322;21.932;2022-11-15T07:10:33;29.9;;;20.3;;
68224;SDS011;57497;43.322;21.932;2022-11-15T07:15:33;40.3;;;23.7;;
68224;SDS011;57497;43.322;21.932;2022-11-15T07:20:32;25.8;;;16.1;;
68224;SDS011;57497;43.322;21.932;2022-11-15T07:25:33;38.1;;;23.5;;
68224;SDS011;57497;43.322;21.932;2022-11-15T07:30:33;38.5;;;22;;
68224;SDS011;57497;43.322;21.932;2022-11-15T07:35:33;37.3;;;24.4;;
68224;SDS011;57497;43.322;21.932;2022-11-15T07:40:33;48.1;;;25.2;;
68224;SDS011;57497;43.322;21.932;2022-11-15T07:45:33;41.4;;;28.6;;
68224;SDS011;57497;43.322;21.932;2022-11-15T07:50:33;39.2;;;23.8;;
68224;SDS011;57497;43.322;21.932;2022-11-15T07:55:33;36.4;;;24.1;;
68224;SDS011;57497;43.322;21.932;2022-11-15T08:00:34;40.2;;;26.5;;
68224;SDS011;57497;43.322;21.932;2022-11-15T08:05:33;39.4;;;25.9;;
68224;SDS011;57497;43.322;21.932;2022-11-15T08:10:33;59.9;;;25.1;;
68224;SDS011;57497;43.322;21.932;2022-11-15T08:15:33;37.5;;;23.6;;
68224;SDS011;57497;43.322;21.932;2022-11-15T08:20:33;45;;;24.6;;
68224;SDS011;57497;43.322;21.932;2022-11-15T08:25:33;38.6;;;25;;
68224;SDS011;57497;43.322;21.932;2022-11-15T08:30:34;41.8;;;27.4;;
68224;SDS011;57497;43.322;21.932;2022-11-15T08:35:33;41.9;;;26.4;;
68224;SDS011;57497;43.322;21.932;2022-11-15T08:40:33;36.1;;;24.9;;
68224;SDS011;57497;43.322;21.932;2022-11-15T08:45:33;48.3;;;26.5;;
68224;SDS011;57497;43.322;21.932;2022-11-15T08:50:33;33.9;;;24.4;;
68224;SDS011;57497;43.322;21.932;2022-11-15T08:55:35;40.2;;;26;;
68224;SDS011;57497;43.322;21.932;2022-11-15T09:00:34;59.8;;;29.6;;
68224;SDS011;57497;43.322;21.932;2022-11-15T09:05:35;37.4;;;29.2;;
68224;SDS011;57497;43.322;21.932;2022-11-15T09:10:33;65.7;;;31.8;;
68224;SDS011;57497;43.322;21.932;2022-11-15T09:15:33;57.3;;;35.9;;
68224;SDS011;57497;43.322;21.932;2022-11-15T09:20:33;51.4;;;30.5;;
68224;SDS011;57497;43.322;21.932;2022-11-15T09:25:33;42;;;26.3;;
68224;SDS011;57497;43.322;21.932;2022-11-15T09:30:33;55.5;;;34.3;;
68224;SDS011;57497;43.322;21.932;2022-11-15T09:35:33;43.7;;;28;;
68224;SDS011;57497;43.322;21.932;2022-11-15T09:40:35;64.8;;;35;;
68224;SDS011;57497;43.322;21.932;2022-11-15T09:45:34;41.1;;;30;;
68224;SDS011;57497;43.322;21.932;2022-11-15T09:50:35;31.4;;;23.6;;
68224;SDS011;57497;43.322;21.932;2022-11-15T09:55:36;31.2;;;22.7;;
68224;SDS011;57497;43.322;21.932;2022-11-15T10:00:35;30.8;;;21.9;;
68224;SDS011;57497;43.322;21.932;2022-11-15T10:05:35;31.4;;;22;;
68224;SDS011;57497;43.322;21.932;2022-11-15T10:10:34;29.2;;;22.7;;
68224;SDS011;57497;43.322;21.932;2022-11-15T10:15:33;31.2;;;20.2;;
68224;SDS011;57497;43.322;21.932;2022-11-15T10:20:34;35.3;;;20.1;;
68224;SDS011;57497;43.322;21.932;2022-11-15T10:25:33;30.7;;;19.7;;
68224;SDS011;57497;43.322;21.932;2022-11-15T10:30:33;47.3;;;22.8;;
68224;SDS011;57497;43.322;21.932;2022-11-15T10:35:33;45.3;;;29.1;;
68224;SDS011;57497;43.322;21.932;2022-11-15T10:40:33;26.8;;;18;;
68224;SDS011;57497;43.322;21.932;2022-11-15T10:45:33;19;;;14.6;;
68224;SDS011;57497;43.322;21.932;2022-11-15T10:50:33;36.7;;;17.2;;
68224;SDS011;57497;43.322;21.932;2022-11-15T10:55:33;22.5;;;16;;
68224;SDS011;57497;43.322;21.932;2022-11-15T11:00:34;25.5;;;18.4;;
68224;SDS011;57497;43.322;21.932;2022-11-15T11:05:34;26;;;20;;
68224;SDS011;57497;43.322;21.932;2022-11-15T11:10:33;26.2;;;19.4;;
68224;SDS011;57497;43.322;21.932;2022-11-15T11:15:33;33.5;;;22.4;;
68224;SDS011;57497;43.322;21.932;2022-11-15T11:20:33;28;;;21;;
68224;SDS011;57497;43.322;21.932;2022-11-15T11:25:35;33.3;;;23.1;;
68224;SDS011;57497;43.322;21.932;2022-11-15T11:30:37;43.9;;;23.4;;
68224;SDS011;57497;43.322;21.932;2022-11-15T11:35:35;45.4;;;22.1;;
68224;SDS011;57497;43.322;21.932;2022-11-15T11:40:34;26.2;;;17.6;;
68224;SDS011;57497;43.322;21.932;2022-11-15T11:45:44;33.9;;;23.2;;
68224;SDS011;57497;43.322;21.932;2022-11-15T11:50:33;30.3;;;18.3;;
68224;SDS011;57497;43.322;21.932;2022-11-15T11:55:34;45.6;;;25.9;;
68224;SDS011;57497;43.322;21.932;2022-11-15T12:00:34;44.2;;;25.5;;
68224;SDS011;57497;43.322;21.932;2022-11-15T12:05:34;32.5;;;20;;
68224;SDS011;57497;43.322;21.932;2022-11-15T12:10:33;68;;;27.8;;
68224;SDS011;57497;43.322;21.932;2022-11-15T12:15:35;30.4;;;21;;
68224;SDS011;57497;43.322;21.932;2022-11-15T12:20:34;28.9;;;18.2;;
68224;SDS011;57497;43.322;21.932;2022-11-15T12:25:34;38.7;;;26.2;;
68224;SDS011;57497;43.322;21.932;2022-11-15T12:30:39;40;;;26.6;;
68224;SDS011;57497;43.322;21.932;2022-11-15T12:35:35;39.6;;;26.2;;
68224;SDS011;57497;43.322;21.932;2022-11-15T12:40:34;52.3;;;27.2;;
68224;SDS011;57497;43.322;21.932;2022-11-15T12:45:34;53.4;;;32.1;;
68224;SDS011;57497;43.322;21.932;2022-11-15T12:50:57;41.4;;;29.8;;
68224;SDS011;57497;43.322;21.932;2022-11-15T12:55:33;39.3;;;28.2;;
68224;SDS011;57497;43.322;21.932;2022-11-15T13:00:36;50.6;;;27.4;;
68224;SDS011;57497;43.322;21.932;2022-11-15T13:06:38;42.8;;;25.8;;
68224;SDS011;57497;43.322;21.932;2022-11-15T13:10:33;39.4;;;26.9;;
68224;SDS011;57497;43.322;21.932;2022-11-15T13:15:34;37.5;;;27.8;;
68224;SDS011;57497;43.322;21.932;2022-11-15T13:20:33;43;;;27.7;;
68224;SDS011;57497;43.322;21.932;2022-11-15T13:26:08;43.4;;;29.4;;
68224;SDS011;57497;43.322;21.932;2022-11-15T13:30:32;43.5;;;27.1;;
68224;SDS011;57497;43.322;21.932;2022-11-15T13:35:33;42.3;;;26.9;;
68224;SDS011;57497;43.322;21.932;2022-11-15T13:40:34;39.6;;;29.6;;
68224;SDS011;57497;43.322;21.932;2022-11-15T13:45:33;49.6;;;32.2;;
68224;SDS011;57497;43.322;21.932;2022-11-15T13:50:34;49.2;;;29.9;;
68224;SDS011;57497;43.322;21.932;2022-11-15T13:55:33;46.9;;;31.8;;
68224;SDS011;57497;43.322;21.932;2022-11-15T14:00:35;74.9;;;36.5;;
68224;SDS011;57497;43.322;21.932;2022-11-15T14:05:33;48.6;;;27.1;;
68224;SDS011;57497;43.322;21.932;2022-11-15T14:10:34;86.2;;;28.6;;
68224;SDS011;57497;43.322;21.932;2022-11-15T14:15:34;64.1;;;30.5;;
68224;SDS011;57497;43.322;21.932;2022-11-15T14:20:34;47.8;;;31.6;;
68224;SDS011;57497;43.322;21.932;2022-11-15T14:25:33;94.7;;;37.4;;
68224;SDS011;57497;43.322;21.932;2022-11-15T14:30:33;90.3;;;46;;
68224;SDS011;57497;43.322;21.932;2022-11-15T14:35:33;93;;;46;;
68224;SDS011;57497;43.322;21.932;2022-11-15T14:40:33;74.8;;;40.2;;
68224;SDS011;57497;43.322;21.932;2022-11-15T14:45:33;62.5;;;36.8;;
68224;SDS011;57497;43.322;21.932;2022-11-15T14:50:33;66;;;36.5;;
68224;SDS011;57497;43.322;21.932;2022-11-15T14:55:33;58.2;;;35.2;;
68224;SDS011;57497;43.322;21.932;2022-11-15T15:00:34;50.9;;;35.5;;
68224;SDS011;57497;43.322;21.932;2022-11-15T15:05:34;64;;;35.6;;
68224;SDS011;57497;43.322;21.932;2022-11-15T15:10:34;57.4;;;35.9;;
68224;SDS011;57497;43.322;21.932;2022-11-15T15:15:34;73.7;;;39.2;;
68224;SDS011;57497;43.322;21.932;2022-11-15T15:20:34;49.5;;;32.4;;
68224;SDS011;57497;43.322;21.932;2022-11-15T15:25:34;54.1;;;35.3;;
68224;SDS011;57497;43.322;21.932;2022-11-15T15:30:33;91.2;;;40.6;;
68224;SDS011;57497;43.322;21.932;2022-11-15T15:35:33;69.3;;;45.7;;
68224;SDS011;57497;43.322;21.932;2022-11-15T15:40:33;83.8;;;44.8;;
68224;SDS011;57497;43.322;21.932;2022-11-15T15:45:33;78.6;;;42.4;;
68224;SDS011;57497;43.322;21.932;2022-11-15T15:50:33;109.5;;;51.1;;
68224;SDS011;57497;43.322;21.932;2022-11-15T15:55:32;85.2;;;52.7;;
68224;SDS011;57497;43.322;21.932;2022-11-15T16:00:33;85.3;;;46.3;;
68224;SDS011;57497;43.322;21.932;2022-11-15T16:05:33;89.5;;;51.3;;
68224;SDS011;57497;43.322;21.932;2022-11-15T16:10:33;74.3;;;48.6;;
68224;SDS011;57497;43.322;21.932;2022-11-15T16:15:34;77.1;;;44.3;;
68224;SDS011;57497;43.322;21.932;2022-11-15T16:20:34;72.3;;;43.2;;
68224;SDS011;57497;43.322;21.932;2022-11-15T16:25:33;73.3;;;44.3;;
68224;SDS011;57497;43.322;21.932;2022-11-15T16:30:33;47.7;;;32.4;;
68224;SDS011;57497;43.322;21.932;2022-11-15T16:35:33;42.3;;;31.9;;
68224;SDS011;57497;43.322;21.932;2022-11-15T16:40:33;75;;;45.6;;
68224;SDS011;57497;43.322;21.932;2022-11-15T16:45:33;86.8;;;48.7;;
68224;SDS011;57497;43.322;21.932;2022-11-15T16:50:33;111.4;;;56.6;;
68224;SDS011;57497;43.322;21.932;2022-11-15T16:55:33;77.4;;;44.5;;
68224;SDS011;57497;43.322;21.932;2022-11-15T17:00:33;89.6;;;46.4;;
68224;SDS011;57497;43.322;21.932;2022-11-15T17:05:33;79.6;;;43.7;;
68224;SDS011;57497;43.322;21.932;2022-11-15T17:10:33;76.6;;;43;;
68224;SDS011;57497;43.322;21.932;2022-11-15T17:15:32;117.3;;;43.2;;
68224;SDS011;57497;43.322;21.932;2022-11-15T17:20:32;74.6;;;39.5;;
68224;SDS011;57497;43.322;21.932;2022-11-15T17:25:33;57.9;;;38.4;;
68224;SDS011;57497;43.322;21.932;2022-11-15T17:30:32;75.9;;;42;;
68224;SDS011;57497;43.322;21.932;2022-11-15T17:35:33;125.7;;;63.5;;
68224;SDS011;57497;43.322;21.932;2022-11-15T17:40:33;155.6;;;75.8;;
68224;SDS011;57497;43.322;21.932;2022-11-15T17:45:32;145.1;;;72.4;;
68224;SDS011;57497;43.322;21.932;2022-11-15T17:50:33;97.8;;;54.8;;
68224;SDS011;57497;43.322;21.932;2022-11-15T17:55:32;88.9;;;44.7;;
68224;SDS011;57497;43.322;21.932;2022-11-15T18:00:34;75.6;;;45.2;;
68224;SDS011;57497;43.322;21.932;2022-11-15T18:05:33;81.2;;;44.8;;
68224;SDS011;57497;43.322;21.932;2022-11-15T18:10:33;102.9;;;54.7;;
68224;SDS011;57497;43.322;21.932;2022-11-15T18:15:33;94.2;;;50.8;;
68224;SDS011;57497;43.322;21.932;2022-11-15T18:20:33;88.3;;;49;;
68224;SDS011;57497;43.322;21.932;2022-11-15T18:25:33;76.5;;;46;;
68224;SDS011;57497;43.322;21.932;2022-11-15T18:30:33;106.8;;;44.9;;
68224;SDS011;57497;43.322;21.932;2022-11-15T18:35:33;86;;;47.4;;
68224;SDS011;57497;43.322;21.932;2022-11-15T18:40:33;78.8;;;46.6;;
68224;SDS011;57497;43.322;21.932;2022-11-15T18:45:33;109.1;;;53;;
68224;SDS011;57497;43.322;21.932;2022-11-15T18:50:33;98.5;;;53.2;;
68224;SDS011;57497;43.322;21.932;2022-11-15T18:55:33;81.3;;;46.5;;
68224;SDS011;57497;43.322;21.932;2022-11-15T19:00:33;78.6;;;42.1;;
68224;SDS011;57497;43.322;21.932;2022-11-15T19:05:33;53.2;;;34.6;;
68224;SDS011;57497;43.322;21.932;2022-11-15T19:10:33;57.2;;;37.4;;
68224;SDS011;57497;43.322;21.932;2022-11-15T19:15:33;56.9;;;34.5;;
68224;SDS011;57497;43.322;21.932;2022-11-15T19:20:34;62.9;;;35.4;;
68224;SDS011;57497;43.322;21.932;2022-11-15T19:25:33;65.3;;;34.9;;
68224;SDS011;57497;43.322;21.932;2022-11-15T19:30:33;67.1;;;41.6;;
68224;SDS011;57497;43.322;21.932;2022-11-15T19:35:33;55;;;32.3;;
68224;SDS011;57497;43.322;21.932;2022-11-15T19:40:33;67.2;;;35.4;;
68224;SDS011;57497;43.322;21.932;2022-11-15T19:45:33;63.9;;;39.2;;
68224;SDS011;57497;43.322;21.932;2022-11-15T19:50:33;74.3;;;41.3;;
68224;SDS011;57497;43.322;21.932;2022-11-15T19:55:33;82;;;50.7;;
68224;SDS011;57497;43.322;21.932;2022-11-15T20:00:34;54.4;;;31.5;;
68224;SDS011;57497;43.322;21.932;2022-11-15T20:05:33;58.6;;;30.8;;
68224;SDS011;57497;43.322;21.932;2022-11-15T20:10:33;64.3;;;44.1;;
68224;SDS011;57497;43.322;21.932;2022-11-15T20:15:33;111.2;;;48.7;;
68224;SDS011;57497;43.322;21.932;2022-11-15T20:20:33;99.5;;;52.4;;
68224;SDS011;57497;43.322;21.932;2022-11-15T20:25:33;108.8;;;51.7;;
68224;SDS011;57497;43.322;21.932;2022-11-15T20:30:33;74.2;;;43.1;;
68224;SDS011;57497;43.322;21.932;2022-11-15T20:35:33;71.2;;;40.3;;
68224;SDS011;57497;43.322;21.932;2022-11-15T20:40:33;81.3;;;46.2;;
68224;SDS011;57497;43.322;21.932;2022-11-15T20:45:33;129.2;;;61.6;;
68224;SDS011;57497;43.322;21.932;2022-11-15T20:50:33;140;;;79.6;;
68224;SDS011;57497;43.322;21.932;2022-11-15T20:55:37;141.9;;;80.8;;
68224;SDS011;57497;43.322;21.932;2022-11-15T21:00:34;141.3;;;80.9;;
68224;SDS011;57497;43.322;21.932;2022-11-15T21:05:33;155.5;;;86.7;;
68224;SDS011;57497;43.322;21.932;2022-11-15T21:10:33;148.7;;;81.6;;
68224;SDS011;57497;43.322;21.932;2022-11-15T21:15:33;192.8;;;98.4;;
68224;SDS011;57497;43.322;21.932;2022-11-15T21:20:33;185.6;;;93.8;;
68224;SDS011;57497;43.322;21.932;2022-11-15T21:25:33;182.2;;;92.5;;
68224;SDS011;57497;43.322;21.932;2022-11-15T21:30:33;183.9;;;99.7;;
68224;SDS011;57497;43.322;21.932;2022-11-15T21:35:33;196.4;;;103.7;;
68224;SDS011;57497;43.322;21.932;2022-11-15T21:40:33;158.2;;;88.9;;
68224;SDS011;57497;43.322;21.932;2022-11-15T21:45:33;207.8;;;115.8;;
68224;SDS011;57497;43.322;21.932;2022-11-15T21:50:33;221;;;121.7;;
68224;SDS011;57497;43.322;21.932;2022-11-15T21:55:33;203.3;;;111;;
68224;SDS011;57497;43.322;21.932;2022-11-15T22:00:34;203.9;;;106.4;;
68224;SDS011;57497;43.322;21.932;2022-11-15T22:05:33;177.5;;;86.5;;
68224;SDS011;57497;43.322;21.932;2022-11-15T22:10:33;177.1;;;89.8;;
68224;SDS011;57497;43.322;21.932;2022-11-15T22:15:32;183.6;;;99.7;;
68224;SDS011;57497;43.322;21.932;2022-11-15T22:20:33;178.1;;;98.9;;
68224;SDS011;57497;43.322;21.932;2022-11-15T22:25:33;189.8;;;103.8;;
68224;SDS011;57497;43.322;21.932;2022-11-15T22:30:33;178.6;;;97;;
68224;SDS011;57497;43.322;21.932;2022-11-15T22:35:33;192.7;;;99.3;;
68224;SDS011;57497;43.322;21.932;2022-11-15T22:40:33;155;;;84.2;;
68224;SDS011;57497;43.322;21.932;2022-11-15T22:45:33;182.6;;;88;;
68224;SDS011;57497;43.322;21.932;2022-11-15T22:50:33;155.2;;;77.5;;
68224;SDS011;57497;43.322;21.932;2022-11-15T22:55:33;162.2;;;86.5;;
68224;SDS011;57497;43.322;21.932;2022-11-15T23:00:34;180.4;;;84.4;;
68224;SDS011;57497;43.322;21.932;2022-11-15T23:05:33;173.8;;;86.6;;
68224;SDS011;57497;43.322;21.932;2022-11-15T23:10:33;166.8;;;86.7;;
68224;SDS011;57497;43.322;21.932;2022-11-15T23:15:33;163.9;;;88;;
68224;SDS011;57497;43.322;21.932;2022-11-15T23:20:33;148.2;;;80.1;;
68224;SDS011;57497;43.322;21.932;2022-11-15T23:25:33;167;;;84.1;;
68224;SDS011;57497;43.322;21.932;2022-11-15T23:30:33;150.5;;;81.9;;
68224;SDS011;57497;43.322;21.932;2022-11-15T23:35:33;169.2;;;88.3;;
68224;SDS011;57497;43.322;21.932;2022-11-15T23:40:32;160.6;;;87.7;;
68224;SDS011;57497;43.322;21.932;2022-11-15T23:45:32;160.9;;;84.5;;
68224;SDS011;57497;43.322;21.932;2022-11-15T23:50:32;151.8;;;86.1;;
68224;SDS011;57497;43.322;21.932;2022-11-15T23:55:32;250.1;;;121.8;;
